San Diego, California
Traffic Map
Current Weather Conditions
San Diego, California
Broken Clouds
Broken Clouds
63°
Feels Like: 63°
Wind Chill: 63° Ceiling: 3800
Heat Index: 63° Visibility: 10mi
Dew Point: 52° Wind: 7mph
Humidity: 67% Direction: 290° (WNW)
Pressure: 30.07in Gusts: 0mph
Raw Report DataKSAN 261551Z 29006KT 10SM SCT022 BKN038 17/11 A3007 RMK AO2 SLP181 T01720111
Traffic Incident Summary
Active as of:
Severity:
Category:
InformationThere was an issue retrieving the traffic information for this location. Please try a different location or try again shortly.
Advertisements